createdAt,value
2022-12-25T00:00:37.757Z,41.22
2022-12-25T00:03:40.294Z,42.53
2022-12-25T00:06:42.423Z,41.80
2022-12-25T00:09:44.429Z,41.13
2022-12-25T00:12:46.664Z,47.05
2022-12-25T00:15:48.715Z,41.30
2022-12-25T00:18:53.958Z,41.20
2022-12-25T00:21:55.987Z,42.60
2022-12-25T00:24:58.120Z,43.27
2022-12-25T00:28:00.250Z,38.03
2022-12-25T00:31:14.038Z,42.50
2022-12-25T00:34:16.616Z,38.90
2022-12-25T00:37:18.681Z,44.70
2022-12-25T00:40:21.744Z,48.83
2022-12-25T00:43:23.931Z,43.40
2022-12-25T00:46:26.188Z,39.60
2022-12-25T00:49:28.379Z,43.53
2022-12-25T00:52:30.405Z,39.03
2022-12-25T00:55:32.473Z,39.40
2022-12-25T00:58:36.047Z,45.95
2022-12-25T01:01:38.921Z,38.20
2022-12-25T01:04:41.244Z,42.03
2022-12-25T01:07:43.308Z,40.47
2022-12-25T01:10:45.418Z,38.47
2022-12-25T01:13:47.472Z,41.20
2022-12-25T01:16:49.769Z,39.22
2022-12-25T01:19:51.995Z,40.75
2022-12-25T01:22:54.152Z,41.77
2022-12-25T01:25:56.221Z,37.93
2022-12-25T01:28:58.374Z,37.65
2022-12-25T01:32:00.524Z,43.78
2022-12-25T01:35:02.643Z,39.05
2022-12-25T01:38:04.718Z,39.10
2022-12-25T01:41:07.047Z,40.33
2022-12-25T01:44:15.002Z,40.60
2022-12-25T01:47:18.605Z,40.30
2022-12-25T01:50:21.213Z,36.13
2022-12-25T01:53:24.652Z,47.50
2022-12-25T01:56:27.842Z,45.80
2022-12-25T01:59:30.556Z,34.78
2022-12-25T02:02:33.208Z,31.45
2022-12-25T02:05:35.922Z,37.70
2022-12-25T02:08:38.151Z,33.00
2022-12-25T02:11:58.406Z,35.43
2022-12-25T02:15:06.118Z,37.30
2022-12-25T02:18:37.702Z,36.92
2022-12-25T02:22:00.099Z,33.53
2022-12-25T02:25:20.116Z,35.10
2022-12-25T02:28:28.020Z,40.93
2022-12-25T02:31:41.362Z,35.10
2022-12-25T02:34:58.459Z,37.58
2022-12-25T02:38:14.345Z,34.65
2022-12-25T02:41:17.517Z,41.83
2022-12-25T02:44:41.623Z,46.30
2022-12-25T02:48:02.291Z,39.53
2022-12-25T02:51:27.168Z,39.28
2022-12-25T02:54:53.236Z,36.30
2022-12-25T02:58:17.755Z,41.13
2022-12-25T03:01:41.355Z,39.47
2022-12-25T03:05:03.273Z,41.15
2022-12-25T03:08:08.827Z,40.53
2022-12-25T03:11:31.336Z,42.33
2022-12-25T03:14:52.002Z,39.87
2022-12-25T03:17:57.383Z,38.10
2022-12-25T03:21:19.069Z,36.55
2022-12-25T03:24:39.921Z,38.22
2022-12-25T03:27:44.405Z,48.92
2022-12-25T03:31:12.628Z,41.07
2022-12-25T03:34:51.796Z,38.80
2022-12-25T03:38:31.345Z,39.85
2022-12-25T03:42:06.456Z,41.65
2022-12-25T03:45:33.326Z,34.97
2022-12-25T03:48:58.677Z,32.87
2022-12-25T03:52:23.117Z,36.47
2022-12-25T03:55:44.908Z,35.63
2022-12-25T03:59:19.318Z,36.60
2022-12-25T04:02:43.729Z,33.88
2022-12-25T04:06:04.441Z,38.10
2022-12-25T04:09:24.900Z,38.87
2022-12-25T04:12:45.576Z,39.10
2022-12-25T04:16:06.427Z,36.95
2022-12-25T04:19:28.058Z,38.45
2022-12-25T04:22:48.727Z,37.37
2022-12-25T04:26:09.340Z,35.80
2022-12-25T04:29:29.980Z,41.33
2022-12-25T04:32:50.493Z,41.05
2022-12-25T04:36:11.504Z,41.78
2022-12-25T04:39:13.778Z,41.77
2022-12-25T04:42:16.667Z,48.73
2022-12-25T04:45:19.417Z,45.50
2022-12-25T04:48:22.257Z,41.45
2022-12-25T04:51:25.663Z,42.60
2022-12-25T04:54:27.756Z,39.47
2022-12-25T04:57:29.820Z,42.83
2022-12-25T05:00:32.009Z,41.80
2022-12-25T05:03:34.675Z,40.40
2022-12-25T05:06:36.721Z,39.70
2022-12-25T05:09:41.864Z,41.50
2022-12-25T05:12:44.139Z,40.67
2022-12-25T05:15:46.352Z,42.97
2022-12-25T05:18:50.922Z,51.88
2022-12-25T05:21:57.771Z,42.40
2022-12-25T05:24:59.773Z,40.13
2022-12-25T05:28:01.823Z,40.47
2022-12-25T05:31:04.095Z,43.63
2022-12-25T05:34:06.109Z,39.38
2022-12-25T05:37:08.230Z,39.65
2022-12-25T05:40:10.866Z,41.93
2022-12-25T05:43:12.897Z,42.23
2022-12-25T05:46:15.267Z,40.15
2022-12-25T05:49:17.396Z,35.25
2022-12-25T05:52:19.462Z,37.30
2022-12-25T05:55:21.567Z,35.10
2022-12-25T05:58:23.681Z,36.80
2022-12-25T06:01:28.292Z,36.63
2022-12-25T06:04:30.495Z,37.22
2022-12-25T06:07:36.411Z,34.72
2022-12-25T06:10:38.543Z,33.87
2022-12-25T06:13:40.700Z,38.13
2022-12-25T06:16:43.429Z,37.10
2022-12-25T06:19:45.643Z,37.88
2022-12-25T06:22:47.995Z,39.20
2022-12-25T06:25:50.066Z,38.67
2022-12-25T06:28:53.615Z,42.23
2022-12-25T06:31:57.474Z,39.40
2022-12-25T06:34:59.664Z,37.70
2022-12-25T06:38:01.741Z,34.13
2022-12-25T06:41:10.452Z,57.73
2022-12-25T06:44:12.581Z,41.87
2022-12-25T06:47:14.769Z,40.00
2022-12-25T06:50:16.952Z,41.75
2022-12-25T06:53:18.990Z,41.08
2022-12-25T06:56:27.308Z,40.83
2022-12-25T06:59:29.444Z,36.67
2022-12-25T07:02:33.173Z,47.15
2022-12-25T07:05:35.369Z,42.10
2022-12-25T07:08:37.504Z,38.00
2022-12-25T07:11:39.590Z,43.67
2022-12-25T07:14:42.296Z,44.30
2022-12-25T07:17:44.479Z,40.25
2022-12-25T07:20:46.531Z,42.70
2022-12-25T07:23:50.364Z,38.28
2022-12-25T07:26:52.473Z,42.17
2022-12-25T07:29:55.021Z,36.67
2022-12-25T07:32:57.864Z,37.38
2022-12-25T07:36:00.307Z,39.88
2022-12-25T07:39:02.553Z,45.88
2022-12-25T07:42:04.691Z,54.87
2022-12-25T07:45:08.027Z,51.33
2022-12-25T07:48:16.290Z,46.92
2022-12-25T07:51:18.857Z,54.40
2022-12-25T07:54:21.506Z,49.65
2022-12-25T07:57:23.502Z,47.50
2022-12-25T08:00:29.825Z,59.47
2022-12-25T08:03:33.788Z,58.10
2022-12-25T08:06:36.281Z,52.88
2022-12-25T08:09:38.367Z,53.42
2022-12-25T08:12:40.510Z,51.83
2022-12-25T08:15:42.606Z,49.63
2022-12-25T08:18:44.745Z,52.67
2022-12-25T08:21:46.838Z,46.08
2022-12-25T08:24:48.908Z,46.92
2022-12-25T08:27:51.052Z,42.87
2022-12-25T08:30:53.445Z,41.57
2022-12-25T08:33:58.411Z,39.15
2022-12-25T08:37:00.465Z,42.88
2022-12-25T08:40:02.596Z,48.83
2022-12-25T08:43:05.117Z,47.80
2022-12-25T08:46:07.403Z,49.40
2022-12-25T08:49:09.727Z,52.95
2022-12-25T08:52:11.845Z,58.72
2022-12-25T08:55:13.981Z,49.90
2022-12-25T08:58:16.808Z,46.40
2022-12-25T09:01:18.949Z,38.93
2022-12-25T09:04:21.436Z,38.90
2022-12-25T09:07:23.542Z,36.30
2022-12-25T09:10:25.822Z,36.67
2022-12-25T09:13:28.270Z,40.50
2022-12-25T09:16:30.563Z,35.37
2022-12-25T09:19:32.755Z,34.40
2022-12-25T09:22:35.203Z,32.35
2022-12-25T09:25:37.263Z,34.63
2022-12-25T09:28:40.820Z,32.03
2022-12-25T09:31:48.446Z,34.03
2022-12-25T09:34:51.833Z,35.22
2022-12-25T09:37:53.890Z,34.65
2022-12-25T09:41:06.114Z,34.13
2022-12-25T09:44:18.341Z,37.03
2022-12-25T09:47:32.108Z,44.57
2022-12-25T09:50:37.830Z,44.88
2022-12-25T09:53:46.087Z,49.28
2022-12-25T09:56:48.484Z,42.08
2022-12-25T09:59:54.045Z,42.20
2022-12-25T10:03:29.541Z,39.60
2022-12-25T10:06:52.473Z,38.80
2022-12-25T10:09:57.586Z,43.20
2022-12-25T10:12:59.731Z,41.37
2022-12-25T10:16:07.930Z,40.47
2022-12-25T10:19:24.890Z,40.07
2022-12-25T10:22:52.856Z,46.95
2022-12-25T10:25:55.598Z,47.15
2022-12-25T10:29:05.403Z,42.42
2022-12-25T10:32:10.525Z,65.80
2022-12-25T10:35:14.557Z,58.17
2022-12-25T10:38:19.246Z,44.13
2022-12-25T10:41:28.428Z,40.83
2022-12-25T10:44:31.149Z,35.70
2022-12-25T10:47:38.225Z,36.17
2022-12-25T10:50:43.546Z,30.80
2022-12-25T10:53:45.703Z,34.78
2022-12-25T10:57:02.508Z,32.25
2022-12-25T11:00:05.610Z,30.05
2022-12-25T11:03:22.303Z,35.57
2022-12-25T11:06:27.555Z,27.80
2022-12-25T11:09:29.826Z,25.23
2022-12-25T11:12:36.746Z,25.98
2022-12-25T11:15:49.057Z,27.80
2022-12-25T11:18:54.362Z,27.80
2022-12-25T11:21:59.783Z,28.70
2022-12-25T11:25:21.174Z,25.70
2022-12-25T11:28:24.316Z,26.37
2022-12-25T11:31:41.267Z,25.67
2022-12-25T11:34:46.531Z,23.70
2022-12-25T11:37:53.330Z,27.07
2022-12-25T11:41:00.730Z,21.30
2022-12-25T11:44:11.028Z,21.23
2022-12-25T11:47:40.644Z,21.30
2022-12-25T11:50:51.563Z,21.63
2022-12-25T11:54:04.084Z,21.00
2022-12-25T11:57:07.382Z,20.25
2022-12-25T12:00:15.685Z,21.02
2022-12-25T12:03:25.337Z,19.33
2022-12-25T12:06:30.410Z,21.95
2022-12-25T12:09:55.098Z,20.00
2022-12-25T12:13:12.492Z,16.17
2022-12-25T12:16:14.717Z,19.20
2022-12-25T12:19:31.169Z,19.98
2022-12-25T12:22:33.440Z,21.27
2022-12-25T12:25:41.227Z,22.73
2022-12-25T12:28:46.287Z,22.65
2022-12-25T12:31:51.099Z,20.40
2022-12-25T12:34:53.429Z,19.87
2022-12-25T12:38:11.986Z,18.12
2022-12-25T12:41:14.863Z,20.23
2022-12-25T12:44:18.178Z,20.67
2022-12-25T12:47:31.470Z,19.75
2022-12-25T12:50:42.677Z,20.05
2022-12-25T12:53:44.851Z,19.92
2022-12-25T12:57:00.477Z,20.57
2022-12-25T13:00:09.992Z,17.70
2022-12-25T13:03:34.275Z,21.23
2022-12-25T13:06:54.588Z,19.25
2022-12-25T13:09:59.413Z,17.12
2022-12-25T13:13:30.692Z,14.87
2022-12-25T13:16:39.197Z,17.20
2022-12-25T13:19:43.832Z,17.20
2022-12-25T13:22:52.349Z,19.15
2022-12-25T13:25:57.306Z,15.77
2022-12-25T13:28:59.579Z,16.83
2022-12-25T13:32:05.709Z,15.00
2022-12-25T13:35:14.480Z,17.62
2022-12-25T13:38:18.283Z,15.77
2022-12-25T13:41:44.698Z,13.85
2022-12-25T13:44:57.682Z,14.00
2022-12-25T13:48:14.503Z,14.63
2022-12-25T13:51:16.993Z,11.48
2022-12-25T13:54:19.538Z,12.20
2022-12-25T13:57:27.075Z,14.15
2022-12-25T14:00:33.867Z,15.73
2022-12-25T14:03:37.819Z,14.77
2022-12-25T14:06:39.982Z,16.33
2022-12-25T14:09:42.254Z,12.95
2022-12-25T14:12:45.164Z,15.70
2022-12-25T14:15:48.982Z,13.70
2022-12-25T14:19:02.525Z,11.43
2022-12-25T14:22:17.675Z,15.55
2022-12-25T14:25:21.237Z,26.12
2022-12-25T14:28:32.993Z,27.65
2022-12-25T14:31:36.138Z,15.23
2022-12-25T14:34:38.316Z,14.05
2022-12-25T14:37:42.353Z,14.45
2022-12-25T14:40:45.734Z,15.43
2022-12-25T14:43:55.238Z,17.50
2022-12-25T14:47:15.857Z,17.83
2022-12-25T14:50:27.583Z,15.45
2022-12-25T14:53:35.310Z,15.73
2022-12-25T14:56:38.598Z,18.52
2022-12-25T14:59:41.466Z,20.07
2022-12-25T15:02:46.694Z,17.83
2022-12-25T15:05:59.906Z,16.30
2022-12-25T15:09:14.369Z,15.88
2022-12-25T15:12:16.581Z,17.85
2022-12-25T15:15:18.641Z,18.50
2022-12-25T15:18:22.882Z,18.43
2022-12-25T15:21:27.731Z,15.18
2022-12-25T15:24:29.862Z,14.77
2022-12-25T15:27:32.108Z,17.23
2022-12-25T15:30:35.667Z,17.83
2022-12-25T15:33:43.875Z,14.53
2022-12-25T15:36:47.261Z,14.48
2022-12-25T15:39:49.389Z,16.35
2022-12-25T15:42:51.704Z,13.62
2022-12-25T15:45:53.832Z,16.90
2022-12-25T15:48:56.004Z,17.50
2022-12-25T15:51:58.028Z,20.30
2022-12-25T15:55:00.094Z,13.98
2022-12-25T15:58:02.287Z,27.45
2022-12-25T16:01:04.828Z,27.67
2022-12-25T16:04:07.073Z,19.40
2022-12-25T16:07:20.653Z,18.15
2022-12-25T16:10:22.849Z,19.37
2022-12-25T16:13:25.012Z,16.10
2022-12-25T16:16:27.137Z,16.63
2022-12-25T16:19:29.383Z,18.53
2022-12-25T16:22:33.096Z,16.15
2022-12-25T16:25:35.288Z,13.13
2022-12-25T16:28:37.613Z,16.52
2022-12-25T16:31:40.496Z,16.37
2022-12-25T16:34:44.073Z,16.47
2022-12-25T16:37:46.193Z,21.48
2022-12-25T16:40:55.661Z,22.10
2022-12-25T16:43:57.737Z,18.65
2022-12-25T16:46:59.860Z,18.57
2022-12-25T16:50:03.889Z,18.63
2022-12-25T16:53:06.780Z,18.83
2022-12-25T16:56:14.893Z,22.87
2022-12-25T16:59:16.953Z,20.55
2022-12-25T17:02:20.897Z,22.40
2022-12-25T17:05:24.633Z,19.90
2022-12-25T17:08:26.696Z,27.23
2022-12-25T17:11:32.355Z,26.77
2022-12-25T17:14:35.678Z,24.20
2022-12-25T17:17:38.101Z,21.90
2022-12-25T17:20:40.405Z,22.00
2022-12-25T17:23:45.172Z,23.17
2022-12-25T17:26:48.135Z,27.90
2022-12-25T17:29:50.276Z,21.98
2022-12-25T17:32:52.693Z,24.30
2022-12-25T17:35:58.639Z,23.37
2022-12-25T17:39:06.501Z,23.83
2022-12-25T17:42:09.011Z,23.62
2022-12-25T17:45:11.881Z,23.87
2022-12-25T17:48:14.008Z,24.83
2022-12-25T17:51:19.474Z,24.43
2022-12-25T17:54:21.681Z,25.83
2022-12-25T17:57:23.750Z,24.83
2022-12-25T18:00:26.131Z,24.58
2022-12-25T18:03:28.350Z,26.47
2022-12-25T18:06:30.858Z,24.40
2022-12-25T18:09:32.917Z,29.05
2022-12-25T18:12:35.167Z,32.80
2022-12-25T18:15:39.984Z,26.77
2022-12-25T18:18:49.506Z,30.47
2022-12-25T18:21:53.923Z,25.17
2022-12-25T18:24:56.010Z,28.92
2022-12-25T18:27:58.088Z,25.33
2022-12-25T18:31:00.449Z,27.45
2022-12-25T18:34:03.022Z,28.27
2022-12-25T18:37:05.158Z,30.93
2022-12-25T18:40:07.941Z,27.00
2022-12-25T18:43:10.654Z,29.42
2022-12-25T18:46:12.906Z,29.23
2022-12-25T18:49:15.080Z,28.83
2022-12-25T18:52:48.335Z,31.23
2022-12-25T18:55:40.833Z,30.37
2022-12-25T18:58:43.876Z,30.88
2022-12-25T19:01:46.478Z,31.70
2022-12-25T19:04:48.733Z,30.00
2022-12-25T19:07:51.083Z,37.40
2022-12-25T19:10:53.209Z,31.35
2022-12-25T19:13:56.531Z,34.42
2022-12-25T19:16:59.161Z,31.00
2022-12-25T19:20:02.356Z,37.63
2022-12-25T19:23:04.503Z,32.20
2022-12-25T19:26:09.149Z,36.65
2022-12-25T19:29:11.346Z,31.37
2022-12-25T19:32:13.884Z,27.95
2022-12-25T19:35:16.361Z,28.93
2022-12-25T19:38:20.305Z,30.17
2022-12-25T19:41:23.171Z,29.50
2022-12-25T19:44:25.855Z,31.87
2022-12-25T19:47:28.151Z,29.87
2022-12-25T19:50:32.700Z,26.33
2022-12-25T19:53:34.780Z,33.70
2022-12-25T19:56:37.258Z,30.15
2022-12-25T19:59:39.700Z,30.58
2022-12-25T20:02:41.916Z,30.02
2022-12-25T20:05:45.148Z,33.23
2022-12-25T20:08:49.846Z,22.50
2022-12-25T20:11:52.059Z,30.70
2022-12-25T20:14:54.148Z,31.52
2022-12-25T20:17:56.362Z,32.83
2022-12-25T20:21:06.392Z,31.57
2022-12-25T20:24:11.416Z,32.73
2022-12-25T20:27:13.541Z,34.38
2022-12-25T20:30:15.973Z,30.52
2022-12-25T20:33:18.585Z,31.02
2022-12-25T20:36:21.046Z,34.87
2022-12-25T20:39:23.520Z,27.97
2022-12-25T20:42:25.843Z,30.95
2022-12-25T20:45:28.439Z,25.12
2022-12-25T20:48:30.825Z,23.60
2022-12-25T20:51:33.399Z,29.10
2022-12-25T20:54:35.660Z,27.17
2022-12-25T20:57:38.106Z,30.95
2022-12-25T21:00:41.973Z,26.87
2022-12-25T21:03:44.787Z,24.52
2022-12-25T21:06:46.946Z,27.97
2022-12-25T21:09:49.100Z,29.90
2022-12-25T21:12:51.312Z,26.37
2022-12-25T21:15:53.383Z,25.35
2022-12-25T21:18:55.638Z,28.30
2022-12-25T21:21:57.757Z,28.43
2022-12-25T21:24:59.875Z,32.80
2022-12-25T21:28:02.008Z,26.90
2022-12-25T21:31:05.353Z,27.80
2022-12-25T21:34:07.461Z,24.67
2022-12-25T21:37:09.583Z,25.57
2022-12-25T21:40:16.389Z,22.53
2022-12-25T21:43:19.628Z,19.45
2022-12-25T21:46:21.960Z,27.00
2022-12-25T21:49:42.719Z,26.45
2022-12-25T21:52:44.766Z,21.43
2022-12-25T21:56:02.084Z,23.77
2022-12-25T21:59:06.912Z,23.90
2022-12-25T22:02:11.715Z,21.73
2022-12-25T22:05:34.044Z,20.75
2022-12-25T22:08:36.307Z,26.00
2022-12-25T22:11:57.213Z,27.33
2022-12-25T22:15:09.812Z,28.58
2022-12-25T22:18:30.880Z,23.52
2022-12-25T22:21:33.092Z,25.65
2022-12-25T22:24:35.371Z,27.57
2022-12-25T22:27:39.362Z,25.23
2022-12-25T22:30:44.465Z,29.60
2022-12-25T22:33:46.661Z,30.75
2022-12-25T22:36:51.435Z,29.20
2022-12-25T22:39:53.609Z,24.70
2022-12-25T22:42:56.627Z,27.23
2022-12-25T22:46:00.677Z,26.98
2022-12-25T22:49:02.922Z,30.17
2022-12-25T22:52:05.338Z,30.27
2022-12-25T22:55:09.027Z,17.63
2022-12-25T22:58:11.128Z,29.87
2022-12-25T23:01:14.131Z,29.42
2022-12-25T23:04:17.333Z,30.42
2022-12-25T23:07:19.421Z,30.88
2022-12-25T23:10:21.910Z,33.23
2022-12-25T23:13:42.558Z,29.13
2022-12-25T23:16:44.650Z,32.40
2022-12-25T23:20:05.697Z,20.33
2022-12-25T23:23:32.786Z,29.17
2022-12-25T23:26:34.906Z,21.43
2022-12-25T23:29:37.722Z,29.10
2022-12-25T23:32:40.576Z,22.75
2022-12-25T23:35:42.628Z,25.55
2022-12-25T23:38:44.785Z,32.05
2022-12-25T23:41:46.874Z,25.87
2022-12-25T23:44:49.114Z,25.20
2022-12-25T23:47:51.253Z,25.77
2022-12-25T23:50:53.489Z,32.17
2022-12-25T23:53:57.687Z,19.83
2022-12-25T23:57:01.047Z,23.70
